»·PEaware :: FFT2164 KLAX-KLAS

FFT2164 :: KLAX-KLAS

FLIGHT INFORMATION

Flight Status: Arrived
Operator:
Frontier Airlines
More flights by this operator :: More flights under this callsign
Pilot: Antonio G. (26284)
Aircraft: AIRBUS A320
(A320)
More flights by this aircraft type
Origin: KLAX Los Angeles Intl
United States
Destination: KLAS McCarran Intl
United States
More flights between these airports :: More routes between these airports
Route: +ORCKA5 MISEN KEPEC6
File this flight plan on PilotEdge
Remarks: RMK / SIMBRIEF SPEAK ENGLISH SLOW PLEASE RMK / DEFAULT SCENERY - MSFS2020
Altitude:
(Current/Filed)
27,000ft
Speed:
(Current/Filed)
467kts
Departed: 18-Oct-20 03:55 PM
Arrived: 18-Oct-20 04:48 PM
Distance/Time
Traveled:
205nm/0:53
Distance/Time
To Go:
Arrived

Flight Plot

Page will automatically refresh every two minutes.

Flight plan parsing failed; only flown route is shown


Map Options




Map Legend


Flown Route
Filed Route
Departure Airport
Arrival Airport
Navaid (VOR, NDB)
Fix

Horizontal Profiles

Position Reports

Time Latitude Longitude Heading Altitude Ground
Speed
18-Oct-20 15:17 33.940378 -118.399864 28 125ft 0kts
18-Oct-20 15:18 33.940378 -118.399864 28 125ft 0kts
18-Oct-20 15:19 33.940378 -118.399864 28 125ft 0kts
18-Oct-20 15:20 33.940378 -118.399864 28 125ft 0kts
18-Oct-20 15:21 33.940378 -118.399864 28 125ft 0kts
18-Oct-20 15:22 33.940378 -118.399864 28 125ft 0kts
18-Oct-20 15:23 33.940378 -118.399864 28 125ft 0kts
18-Oct-20 15:24 33.940378 -118.399864 28 125ft 0kts
18-Oct-20 15:24 33.940378 -118.399864 28 125ft 0kts
18-Oct-20 15:26 33.940378 -118.399864 28 125ft 0kts
18-Oct-20 15:27 33.940378 -118.399864 28 125ft 0kts
18-Oct-20 15:27 33.940378 -118.399864 28 125ft 0kts
18-Oct-20 15:29 33.940378 -118.399864 28 125ft 0kts
18-Oct-20 15:30 33.940378 -118.399864 28 125ft 0kts
18-Oct-20 15:30 33.940378 -118.399864 28 125ft 0kts
18-Oct-20 15:31 33.940378 -118.399864 28 125ft 0kts
18-Oct-20 15:32 33.940378 -118.399864 28 125ft 0kts
18-Oct-20 15:33 33.940378 -118.399864 28 125ft 0kts
18-Oct-20 15:34 33.940378 -118.399864 28 125ft 0kts
18-Oct-20 15:35 33.940378 -118.399864 28 125ft 0kts
18-Oct-20 15:36 33.940378 -118.399864 28 125ft 0kts
18-Oct-20 15:37 33.940378 -118.399864 28 125ft 0kts
18-Oct-20 15:38 33.940378 -118.399864 28 125ft 0kts
18-Oct-20 15:39 33.940378 -118.399864 28 125ft 0kts
18-Oct-20 15:40 33.940378 -118.399864 28 125ft 0kts
18-Oct-20 15:41 33.940378 -118.399864 28 125ft 0kts
18-Oct-20 15:42 33.940214 -118.399969 27 125ft 2kts
18-Oct-20 15:43 33.939572 -118.400379 27 125ft 0kts
18-Oct-20 15:44 33.939572 -118.400379 27 125ft 0kts
18-Oct-20 15:45 33.939572 -118.400379 27 125ft 0kts
18-Oct-20 15:46 33.939572 -118.400379 27 125ft 0kts
18-Oct-20 15:47 33.939608 -118.400294 79 125ft 0kts
18-Oct-20 15:48 33.939923 -118.396898 83 125ft 21kts
18-Oct-20 15:49 33.940550 -118.390439 95 125ft 18kts
18-Oct-20 15:50 33.941150 -118.384030 85 125ft 13kts
18-Oct-20 15:51 33.940743 -118.383398 171 125ft 0kts
18-Oct-20 15:52 33.940502 -118.383355 171 125ft 5kts
18-Oct-20 15:53 33.939511 -118.383596 260 125ft 0kts
18-Oct-20 15:54 33.936618 -118.411299 262 732ft 157kts
18-Oct-20 15:55 33.932166 -118.483006 265 3235ft 244kts
18-Oct-20 15:56 33.917424 -118.560911 249 5138ft 243kts
18-Oct-20 15:57 33.890691 -118.635849 229 8911ft 248kts
18-Oct-20 15:58 33.826400 -118.641648 140 9014ft 282kts
18-Oct-20 15:59 33.813459 -118.555554 57 9006ft 286kts
18-Oct-20 16:00 33.864928 -118.482845 45 9046ft 294kts
18-Oct-20 16:01 33.921947 -118.410915 45 12267ft 302kts
18-Oct-20 16:02 33.980895 -118.335250 46 15266ft 317kts
18-Oct-20 16:03 34.036351 -118.251038 56 16601ft 376kts
18-Oct-20 16:04 34.099784 -118.137815 55 18042ft 421kts
18-Oct-20 16:05 34.162140 -118.027025 56 20030ft 435kts
18-Oct-20 16:06 34.230784 -117.905106 56 21926ft 449kts
18-Oct-20 16:07 34.301855 -117.778557 55 23597ft 461kts
18-Oct-20 16:08 34.376142 -117.649854 54 25012ft 473kts
18-Oct-20 16:09 34.454084 -117.519034 53 26543ft 468kts
18-Oct-20 16:10 34.526311 -117.397463 53 27014ft 453kts
18-Oct-20 16:11 34.599448 -117.273974 53 27024ft 450kts
18-Oct-20 16:12 34.672343 -117.150465 53 27029ft 450kts
18-Oct-20 16:13 34.744959 -117.027013 53 27033ft 451kts
18-Oct-20 16:14 34.817687 -116.902904 53 27035ft 450kts
18-Oct-20 16:15 34.890065 -116.778918 52 27026ft 449kts
18-Oct-20 16:16 34.960661 -116.655395 53 25741ft 439kts
18-Oct-20 16:17 35.024681 -116.541874 52 24547ft 373kts
18-Oct-20 16:18 35.082543 -116.439927 48 24012ft 360kts
18-Oct-20 16:19 35.149449 -116.349635 43 23997ft 357kts
18-Oct-20 16:20 35.218139 -116.261732 43 23993ft 360kts
18-Oct-20 16:21 35.288250 -116.172743 43 24001ft 367kts
18-Oct-20 16:22 35.359438 -116.082516 44 23528ft 369kts
18-Oct-20 16:23 35.430473 -115.992400 45 21070ft 359kts
18-Oct-20 16:24 35.498032 -115.906521 46 18882ft 342kts
18-Oct-20 16:25 35.562338 -115.824629 47 16758ft 325kts
18-Oct-20 16:26 35.623624 -115.746412 47 14659ft 310kts
18-Oct-20 16:27 35.682580 -115.671123 47 13124ft 299kts
18-Oct-20 16:28 35.741613 -115.599922 29 13042ft 299kts
18-Oct-20 16:29 35.823108 -115.578393 7 13038ft 300kts
18-Oct-20 16:30 35.905732 -115.569741 5 13039ft 298kts
18-Oct-20 16:31 35.976981 -115.531030 60 12933ft 287kts
18-Oct-20 16:32 36.008160 -115.442711 67 11225ft 275kts
18-Oct-20 16:33 36.023681 -115.351656 89 10316ft 278kts
18-Oct-20 16:34 36.020970 -115.258624 93 9077ft 264kts
18-Oct-20 16:35 36.015301 -115.169769 94 8949ft 253kts
18-Oct-20 16:36 36.010316 -115.089067 94 8038ft 239kts
18-Oct-20 16:37 36.005305 -115.007142 94 8004ft 240kts
18-Oct-20 16:38 36.000584 -114.925192 94 7999ft 239kts
18-Oct-20 16:39 35.995766 -114.842927 94 8007ft 240kts
18-Oct-20 16:40 36.023117 -114.777566 15 7380ft 219kts
18-Oct-20 16:41 36.066567 -114.817270 281 5447ft 218kts
18-Oct-20 16:42 36.078297 -114.885962 281 5013ft 203kts
18-Oct-20 16:43 36.081518 -114.955647 264 4985ft 197kts
18-Oct-20 16:44 36.073823 -115.014636 264 3861ft 171kts
18-Oct-20 16:45 36.073583 -115.069200 269 2992ft 160kts
18-Oct-20 16:46 36.073677 -115.122604 270 2167ft 155kts
18-Oct-20 16:47 36.073669 -115.151613 273 2132ft 31kts
18-Oct-20 16:48 36.074184 -115.153994 292 2143ft 0kts
18-Oct-20 16:49 36.075684 -115.156591 316 2163ft 18kts
18-Oct-20 16:50 36.076955 -115.158060 329 2165ft 0kts
18-Oct-20 16:51 36.076955 -115.158061 329 2165ft 0kts
18-Oct-20 16:52 36.078055 -115.157861 99 2164ft 7kts
18-Oct-20 16:53 36.078044 -115.151944 90 2152ft 26kts
18-Oct-20 16:54 36.079065 -115.148170 355 2135ft 6kts
18-Oct-20 16:55 36.079866 -115.148083 66 2131ft 3kts
18-Oct-20 16:56 36.080264 -115.147271 55 2127ft 0kts
18-Oct-20 16:57 36.080264 -115.147271 55 2127ft 0kts
18-Oct-20 16:58 36.080264 -115.147271 55 2127ft 0kts

Navigation Log

Ident Type
Flight plan parsing failed, navigation log unavailable